Time;durP1;ratioP1;P1;durP2;ratioP2;P2;SDS_P1;SDS_P2;PMS_P1;PMS_P2;Temp;Humidity;BMP_temperature;BMP_pressure;BME280_temperature;BME280_humidity;BME280_pressure;Samples;Min_cycle;Max_cycle;Signal;HPM_P1;HPM_P2
2023/07/02 00:00:20;;;;;;;6.87;4.40;;;14.90;99.90;;;;;;5009699;28;20200;-60
2023/07/02 00:02:45;;;;;;;8.77;4.80;;;14.90;99.90;;;;;;5011988;28;20456;-61
2023/07/02 00:05:11;;;;;;;8.80;4.43;;;14.90;99.90;;;;;;5007547;28;20203;-59
2023/07/02 00:07:37;;;;;;;12.07;5.20;;;14.90;99.90;;;;;;5000067;28;20179;-59
2023/07/02 00:10:03;;;;;;;5.80;4.23;;;14.90;99.90;;;;;;5013915;28;20188;-59
2023/07/02 00:12:29;;;;;;;8.53;4.73;;;14.90;99.90;;;;;;5000541;28;20771;-61
2023/07/02 00:14:54;;;;;;;10.03;4.70;;;15.00;99.90;;;;;;4993953;28;20470;-59
2023/07/02 00:17:21;;;;;;;9.67;4.60;;;14.90;99.90;;;;;;4994049;28;20182;-60
2023/07/02 00:19:46;;;;;;;8.67;4.07;;;14.90;99.90;;;;;;4993799;28;20196;-59
2023/07/02 00:22:12;;;;;;;11.70;4.33;;;15.00;99.90;;;;;;4994327;28;20899;-59
2023/07/02 00:24:38;;;;;;;6.83;4.00;;;14.90;99.90;;;;;;5006659;28;20186;-58
2023/07/02 00:27:04;;;;;;;8.73;4.70;;;15.00;99.90;;;;;;5013396;28;20419;-58
2023/07/02 00:29:30;;;;;;;8.40;5.00;;;14.90;99.90;;;;;;5013532;28;20197;-59
2023/07/02 00:31:55;;;;;;;11.60;5.20;;;14.90;99.90;;;;;;5011967;28;20445;-59
2023/07/02 00:34:21;;;;;;;10.60;4.70;;;14.90;99.90;;;;;;5011795;28;20252;-59
2023/07/02 00:36:46;;;;;;;5.57;4.80;;;15.00;99.90;;;;;;5005204;28;20652;-59
2023/07/02 00:39:12;;;;;;;6.50;5.10;;;15.00;99.90;;;;;;5011934;28;20670;-58
2023/07/02 00:41:38;;;;;;;9.47;4.97;;;15.10;99.90;;;;;;5011553;28;20192;-59
2023/07/02 00:44:04;;;;;;;9.37;4.60;;;15.10;99.90;;;;;;5010022;28;20194;-58
2023/07/02 00:46:31;;;;;;;7.50;4.63;;;15.10;99.90;;;;;;5007015;28;20198;-58
2023/07/02 00:48:57;;;;;;;5.80;4.70;;;15.10;99.90;;;;;;5002653;28;20922;-59
2023/07/02 00:51:24;;;;;;;14.07;5.13;;;15.10;99.90;;;;;;5009361;28;20474;-59
2023/07/02 00:53:55;;;;;;;7.63;5.37;;;15.10;99.90;;;;;;5010233;28;20537;-59
2023/07/02 00:56:22;;;;;;;12.97;5.60;;;15.10;99.90;;;;;;5006165;28;20446;-58
2023/07/02 00:58:50;;;;;;;9.80;5.37;;;15.10;99.90;;;;;;5007961;28;20443;-58
2023/07/02 01:01:20;;;;;;;7.60;4.83;;;15.10;99.90;;;;;;5010796;28;20447;-59
2023/07/02 01:04:03;;;;;;;7.20;4.87;;;15.20;99.90;;;;;;5004627;28;20451;-58
2023/07/02 01:06:34;;;;;;;12.40;5.50;;;15.20;99.90;;;;;;5008534;28;20511;-58
2023/07/02 01:09:05;;;;;;;11.73;4.90;;;15.20;99.90;;;;;;5011616;28;20438;-58
2023/07/02 01:11:42;;;;;;;8.53;5.30;;;15.20;99.90;;;;;;5010507;28;20453;-59
2023/07/02 01:14:28;;;;;;;10.47;5.03;;;15.20;99.90;;;;;;5011502;28;20597;-59
2023/07/02 01:16:55;;;;;;;9.93;5.43;;;15.20;99.90;;;;;;5010974;28;20489;-58
2023/07/02 01:19:51;;;;;;;8.87;4.90;;;15.20;99.90;;;;;;5006987;28;20961;-59
2023/07/02 01:22:18;;;;;;;7.70;5.57;;;15.20;99.90;;;;;;4973903;28;20416;-59
2023/07/02 01:24:46;;;;;;;8.77;5.23;;;15.10;99.90;;;;;;4986283;28;20478;-59
2023/07/02 01:27:11;;;;;;;8.43;5.20;;;15.10;99.90;;;;;;4998413;28;20575;-59
2023/07/02 01:29:37;;;;;;;9.43;5.40;;;15.10;99.90;;;;;;4994361;28;20541;-59
2023/07/02 01:32:03;;;;;;;8.33;6.07;;;15.10;99.90;;;;;;5010072;28;20195;-60
2023/07/02 01:34:29;;;;;;;9.40;4.70;;;15.10;99.90;;;;;;5010808;28;20222;-59
2023/07/02 01:36:54;;;;;;;8.43;4.87;;;15.10;99.90;;;;;;5007917;28;21079;-58
2023/07/02 01:39:20;;;;;;;10.53;5.70;;;15.20;99.90;;;;;;5011128;28;20190;-59
2023/07/02 01:41:55;;;;;;;7.70;4.70;;;15.20;99.90;;;;;;5007342;28;20193;-58
2023/07/02 01:44:21;;;;;;;15.03;4.80;;;15.20;99.90;;;;;;5010483;28;20204;-60
2023/07/02 01:46:48;;;;;;;8.23;5.10;;;15.30;99.90;;;;;;5008696;28;20438;-59
2023/07/02 01:49:18;;;;;;;8.73;5.00;;;15.30;99.90;;;;;;4992693;28;20443;-58
2023/07/02 01:51:55;;;;;;;9.77;5.97;;;15.20;99.90;;;;;;5012432;28;20421;-58
2023/07/02 01:54:22;;;;;;;9.93;5.33;;;15.20;99.90;;;;;;5010316;28;20576;-59
2023/07/02 01:56:48;;;;;;;11.73;5.80;;;15.30;99.90;;;;;;5006409;28;20447;-58
2023/07/02 01:59:14;;;;;;;12.47;5.97;;;15.30;99.90;;;;;;5010884;28;20449;-58
2023/07/02 02:01:40;;;;;;;9.70;5.67;;;15.30;99.90;;;;;;5005492;28;20202;-59
2023/07/02 02:04:09;;;;;;;9.60;5.90;;;15.20;99.90;;;;;;5010101;28;20192;-58
2023/07/02 02:06:35;;;;;;;9.93;6.27;;;15.20;99.90;;;;;;5000720;28;20443;-58
2023/07/02 02:09:03;;;;;;;16.50;6.00;;;15.10;99.90;;;;;;5004896;28;20456;-58
2023/07/02 02:11:28;;;;;;;14.27;6.23;;;15.10;99.90;;;;;;5011350;28;20826;-58
2023/07/02 02:13:54;;;;;;;20.10;6.30;;;15.10;99.90;;;;;;4991858;28;20518;-58
2023/07/02 02:16:20;;;;;;;10.83;5.90;;;15.10;99.90;;;;;;4992222;28;20192;-57
2023/07/02 02:18:46;;;;;;;8.77;5.70;;;15.00;99.90;;;;;;4991944;28;20220;-59
2023/07/02 02:21:11;;;;;;;8.77;6.03;;;15.00;99.90;;;;;;4992573;28;20419;-58
2023/07/02 02:23:37;;;;;;;11.30;6.10;;;15.10;99.90;;;;;;4992549;28;20506;-59
2023/07/02 02:26:02;;;;;;;11.97;5.90;;;15.10;99.90;;;;;;5011425;28;20239;-58
2023/07/02 02:28:28;;;;;;;9.30;6.50;;;15.00;99.90;;;;;;5011726;28;20186;-58
2023/07/02 02:30:54;;;;;;;12.17;5.63;;;15.00;99.90;;;;;;5011434;28;20176;-59
2023/07/02 02:33:20;;;;;;;13.03;6.00;;;15.00;99.90;;;;;;5011406;28;20265;-59
2023/07/02 02:35:46;;;;;;;8.73;6.00;;;15.00;99.90;;;;;;5003623;28;20191;-59
2023/07/02 02:38:12;;;;;;;8.43;6.67;;;14.90;99.90;;;;;;4991916;28;20905;-57
2023/07/02 02:40:37;;;;;;;10.50;6.03;;;14.90;99.90;;;;;;5009421;28;20263;-58
2023/07/02 02:43:03;;;;;;;11.03;6.77;;;14.90;99.90;;;;;;5009315;28;20181;-58
2023/07/02 02:45:29;;;;;;;10.87;6.60;;;14.80;99.90;;;;;;5009557;28;20217;-59
2023/07/02 02:47:54;;;;;;;10.73;6.50;;;14.90;99.90;;;;;;5009968;28;20201;-60
2023/07/02 02:50:20;;;;;;;12.03;6.43;;;14.80;99.90;;;;;;5010231;28;20925;-58
2023/07/02 02:52:46;;;;;;;10.50;6.63;;;14.80;99.90;;;;;;5011295;28;20182;-59
2023/07/02 02:55:12;;;;;;;13.77;6.63;;;14.80;99.90;;;;;;4999882;28;20246;-59
2023/07/02 02:57:38;;;;;;;13.90;5.90;;;14.80;99.90;;;;;;5004031;28;20241;-56
2023/07/02 03:00:04;;;;;;;13.30;6.87;;;14.80;99.90;;;;;;4994207;28;20481;-58
2023/07/02 03:02:30;;;;;;;13.83;7.50;;;14.80;99.90;;;;;;5010133;28;20202;-59
2023/07/02 03:04:56;;;;;;;16.03;7.43;;;14.80;99.90;;;;;;5008159;28;20441;-58
2023/07/02 03:07:22;;;;;;;12.33;6.13;;;14.80;99.90;;;;;;5003869;28;20226;-58
2023/07/02 03:09:48;;;;;;;16.20;7.03;;;14.80;99.90;;;;;;5009271;28;20488;-59
2023/07/02 03:12:13;;;;;;;9.90;6.20;;;14.80;99.90;;;;;;5009312;28;20926;-58
2023/07/02 03:14:39;;;;;;;14.00;6.43;;;14.80;99.90;;;;;;5006858;28;20229;-58
2023/07/02 03:17:05;;;;;;;11.47;6.50;;;14.80;99.90;;;;;;5011212;28;20232;-58
2023/07/02 03:19:30;;;;;;;12.60;6.97;;;14.80;99.90;;;;;;5009440;28;20257;-57
2023/07/02 03:21:56;;;;;;;8.60;6.47;;;14.80;99.90;;;;;;5011939;28;20204;-58
2023/07/02 03:24:22;;;;;;;11.20;6.73;;;14.80;99.90;;;;;;5013351;28;20195;-58
2023/07/02 03:26:47;;;;;;;7.33;6.50;;;14.70;99.90;;;;;;5003881;28;20226;-58
2023/07/02 03:29:13;;;;;;;18.20;6.50;;;14.70;99.90;;;;;;5012607;28;20191;-59
2023/07/02 03:31:39;;;;;;;12.97;6.93;;;14.80;99.90;;;;;;5012777;28;20236;-57
2023/07/02 03:34:07;;;;;;;10.80;6.67;;;14.80;99.90;;;;;;5011166;28;20516;-58
2023/07/02 03:36:33;;;;;;;8.83;6.27;;;14.80;99.90;;;;;;5008511;28;20539;-56
2023/07/02 03:38:59;;;;;;;10.83;6.13;;;14.80;99.90;;;;;;5012688;28;20449;-58
2023/07/02 03:41:24;;;;;;;16.47;6.73;;;14.80;99.90;;;;;;5012782;28;20541;-59
2023/07/02 03:43:50;;;;;;;13.80;6.77;;;14.80;99.90;;;;;;5010753;28;20234;-59
2023/07/02 03:46:16;;;;;;;11.30;6.30;;;14.80;99.90;;;;;;5011415;28;20597;-57
2023/07/02 03:48:42;;;;;;;12.53;6.57;;;14.80;99.90;;;;;;5014135;28;20444;-59
2023/07/02 03:51:08;;;;;;;14.73;6.73;;;14.90;99.90;;;;;;5012614;28;20186;-58
2023/07/02 03:53:33;;;;;;;18.97;7.10;;;14.90;99.30;;;;;;5013674;28;20329;-58
2023/07/02 03:55:59;;;;;;;15.87;6.90;;;14.90;59.10;;;;;;5008294;28;20193;-59
2023/07/02 03:58:25;;;;;;;14.97;6.00;;;14.90;44.40;;;;;;5010271;28;20191;-59
2023/07/02 04:00:51;;;;;;;11.37;5.60;;;14.90;49.40;;;;;;5010748;28;20197;-59
2023/07/02 04:03:17;;;;;;;12.20;6.07;;;15.00;15.80;;;;;;5011586;28;20444;-60
2023/07/02 04:05:43;;;;;;;13.33;6.10;;;15.00;1.00;;;;;;5012086;28;20213;-59
2023/07/02 04:08:08;;;;;;;14.00;6.20;;;15.00;1.00;;;;;;5010580;28;20449;-58
2023/07/02 04:10:34;;;;;;;22.20;6.57;;;15.00;1.00;;;;;;5012764;28;20441;-58
2023/07/02 04:12:59;;;;;;;17.00;6.40;;;15.00;1.00;;;;;;5013651;28;20697;-58
2023/07/02 04:15:26;;;;;;;15.67;7.20;;;15.00;1.00;;;;;;5012224;28;20218;-58
2023/07/02 04:17:52;;;;;;;14.60;6.30;;;15.00;1.00;;;;;;5011262;28;20625;-58
2023/07/02 04:20:21;;;;;;;14.20;6.63;;;15.10;1.00;;;;;;5008177;28;20442;-56
2023/07/02 04:22:47;;;;;;;13.93;6.07;;;15.10;1.00;;;;;;5013173;28;20942;-58
2023/07/02 04:25:15;;;;;;;18.30;6.63;;;15.10;1.00;;;;;;5011844;28;20956;-59
2023/07/02 04:27:42;;;;;;;14.40;6.60;;;15.20;1.00;;;;;;5011499;28;20840;-58
2023/07/02 04:30:09;;;;;;;16.70;7.17;;;15.20;1.00;;;;;;5005713;28;20490;-58
2023/07/02 04:32:35;;;;;;;14.40;6.37;;;15.20;1.00;;;;;;4993251;28;20427;-58
2023/07/02 04:35:01;;;;;;;21.90;6.80;;;15.20;1.00;;;;;;5011008;28;20845;-58
2023/07/02 04:37:28;;;;;;;14.57;6.87;;;15.30;1.00;;;;;;5010058;28;20195;-58
2023/07/02 04:39:54;;;;;;;18.03;7.97;;;15.30;1.00;;;;;;5011701;28;20202;-56
2023/07/02 04:42:19;;;;;;;18.93;7.37;;;15.40;99.90;;;;;;5012764;28;20424;-59
2023/07/02 04:44:45;;;;;;;14.50;6.40;;;15.40;99.90;;;;;;5011178;28;20198;-58
2023/07/02 04:47:11;;;;;;;21.30;8.10;;;15.50;99.90;;;;;;5011274;28;20202;-58
2023/07/02 04:49:37;;;;;;;17.83;7.07;;;15.60;36.60;;;;;;5007013;28;20196;-61
2023/07/02 04:52:03;;;;;;;13.80;6.50;;;15.60;99.90;;;;;;5001229;28;20531;-58
2023/07/02 04:54:28;;;;;;;16.70;7.80;;;15.70;1.00;;;;;;5012843;28;20578;-61
2023/07/02 04:56:54;;;;;;;17.13;7.30;;;15.70;1.00;;;;;;4998313;28;20279;-59
2023/07/02 04:59:21;;;;;;;16.53;6.80;;;15.80;99.90;;;;;;4993100;28;20233;-59
2023/07/02 05:01:47;;;;;;;18.47;6.70;;;15.80;99.90;;;;;;4993371;28;20180;-60
2023/07/02 05:04:13;;;;;;;21.43;7.07;;;15.90;99.90;;;;;;4993639;28;20429;-59
2023/07/02 05:06:38;;;;;;;20.10;7.43;;;15.90;99.90;;;;;;4993259;28;20415;-58
2023/07/02 05:09:04;;;;;;;27.03;8.40;;;16.00;1.00;;;;;;4997472;28;20232;-59
2023/07/02 05:11:30;;;;;;;24.60;7.80;;;16.00;1.00;;;;;;4994155;28;20274;-59
2023/07/02 05:13:55;;;;;;;16.37;7.20;;;16.10;1.00;;;;;;4992847;28;20218;-59
2023/07/02 05:16:21;;;;;;;23.10;7.57;;;16.10;1.00;;;;;;4993125;28;20186;-59
2023/07/02 05:18:47;;;;;;;21.00;7.50;;;16.20;93.60;;;;;;4992830;28;20188;-59
2023/07/02 05:21:12;;;;;;;22.40;7.73;;;16.20;57.70;;;;;;4999035;28;20200;-58
2023/07/02 05:23:38;;;;;;;18.53;7.20;;;16.30;1.00;;;;;;5007771;28;20195;-58
2023/07/02 05:26:03;;;;;;;24.63;7.90;;;16.40;1.00;;;;;;5011265;28;20199;-58
2023/07/02 05:28:29;;;;;;;19.33;6.90;;;16.40;95.20;;;;;;5012686;28;20185;-59
2023/07/02 05:30:55;;;;;;;20.93;7.80;;;16.50;1.00;;;;;;4998406;28;20202;-59
2023/07/02 05:33:21;;;;;;;19.27;7.70;;;16.60;1.00;;;;;;5011282;28;20248;-59
2023/07/02 05:35:48;;;;;;;21.90;7.50;;;16.70;99.90;;;;;;5008366;28;20270;-59
2023/07/02 05:38:13;;;;;;;25.63;8.07;;;16.70;1.00;;;;;;5011562;28;20431;-58
2023/07/02 05:40:39;;;;;;;20.27;7.40;;;16.80;99.90;;;;;;5007734;28;20436;-59
2023/07/02 05:43:05;;;;;;;20.40;7.10;;;16.80;99.90;;;;;;5009292;28;20190;-58
2023/07/02 05:45:31;;;;;;;27.40;7.77;;;16.80;95.80;;;;;;5008936;28;20197;-59
2023/07/02 05:47:57;;;;;;;18.53;7.83;;;16.80;98.50;;;;;;5007358;28;20553;-59
2023/07/02 05:50:23;;;;;;;22.13;7.97;;;17.00;61.10;;;;;;5000981;28;20434;-59
2023/07/02 05:52:49;;;;;;;27.77;8.23;;;17.20;81.50;;;;;;5007086;28;20274;-59
2023/07/02 05:55:14;;;;;;;19.83;7.50;;;17.40;26.10;;;;;;5006486;28;20584;-58
2023/07/02 05:57:40;;;;;;;23.83;8.20;;;17.50;1.00;;;;;;5007443;28;20199;-59
2023/07/02 06:00:06;;;;;;;25.30;8.63;;;17.40;1.00;;;;;;5009609;28;20240;-59
2023/07/02 06:02:32;;;;;;;22.60;8.23;;;17.50;1.00;;;;;;5008266;28;20221;-59
2023/07/02 06:04:58;;;;;;;27.53;7.90;;;17.60;1.00;;;;;;5011958;28;20413;-59
2023/07/02 06:07:27;;;;;;;21.80;8.60;;;17.70;1.00;;;;;;4993717;28;20503;-60
2023/07/02 06:09:53;;;;;;;21.67;8.10;;;17.80;1.00;;;;;;5011638;28;20206;-60
2023/07/02 06:12:20;;;;;;;23.57;8.00;;;17.80;1.00;;;;;;5001789;28;20426;-60
2023/07/02 06:14:46;;;;;;;23.30;7.90;;;17.80;1.00;;;;;;4992290;28;20214;-60
2023/07/02 06:17:11;;;;;;;28.90;8.50;;;17.90;1.00;;;;;;4991897;28;20443;-60
2023/07/02 06:19:37;;;;;;;25.50;8.63;;;18.00;1.00;;;;;;5002911;28;20199;-59
2023/07/02 06:22:03;;;;;;;29.23;8.80;;;18.10;1.00;;;;;;5009174;28;20200;-59
2023/07/02 06:24:29;;;;;;;25.60;7.77;;;18.20;1.00;;;;;;5006121;28;20445;-60
2023/07/02 06:26:55;;;;;;;25.73;9.00;;;18.20;1.00;;;;;;4994327;28;20531;-60
2023/07/02 06:29:22;;;;;;;25.53;8.20;;;18.30;1.00;;;;;;4993775;28;20188;-61
2023/07/02 06:31:48;;;;;;;27.33;9.00;;;18.40;1.00;;;;;;5068438;28;20176;-59
2023/07/02 06:34:14;;;;;;;27.43;8.47;;;18.50;1.00;;;;;;5020658;28;20509;-61
2023/07/02 06:36:40;;;;;;;33.23;8.30;;;18.60;1.00;;;;;;5067070;28;20184;-60
2023/07/02 06:39:05;;;;;;;23.03;7.67;;;18.60;1.00;;;;;;5087986;28;20480;-60
2023/07/02 06:41:31;;;;;;;23.03;7.90;;;18.70;1.00;;;;;;4992201;28;20635;-60
2023/07/02 06:43:56;;;;;;;30.53;9.80;;;18.80;1.00;;;;;;4991746;28;20187;-60
2023/07/02 06:46:22;;;;;;;29.00;8.10;;;18.80;1.00;;;;;;4990958;28;20481;-60
2023/07/02 06:48:48;;;;;;;19.10;8.43;;;18.80;1.00;;;;;;5006720;28;20199;-60
2023/07/02 06:51:14;;;;;;;22.60;9.23;;;18.90;1.00;;;;;;5011401;28;20190;-59
2023/07/02 06:53:41;;;;;;;22.60;9.10;;;19.00;1.00;;;;;;4999617;28;20663;-59
2023/07/02 06:56:09;;;;;;;25.80;8.30;;;18.90;1.00;;;;;;4998371;28;20510;-61
2023/07/02 06:58:35;;;;;;;24.97;8.93;;;18.90;1.00;;;;;;4993468;28;20499;-60
2023/07/02 07:01:01;;;;;;;22.30;9.33;;;18.90;1.00;;;;;;5083975;28;20422;-60
2023/07/02 07:03:26;;;;;;;22.67;9.37;;;18.90;1.00;;;;;;5094006;28;20188;-61
2023/07/02 07:05:53;;;;;;;25.00;8.90;;;18.70;1.00;;;;;;5051824;28;20189;-61
2023/07/02 07:08:18;;;;;;;27.63;9.17;;;18.60;1.00;;;;;;5013398;28;20221;-62
2023/07/02 07:10:45;;;;;;;30.07;9.10;;;18.40;1.00;;;;;;5007544;28;20442;-59
2023/07/02 07:13:11;;;;;;;24.70;9.20;;;18.40;1.00;;;;;;5008495;28;20586;-59
2023/07/02 07:15:36;;;;;;;20.43;8.93;;;18.40;1.00;;;;;;5006797;28;20516;-59
2023/07/02 07:18:03;;;;;;;24.27;8.87;;;18.40;1.00;;;;;;5009446;28;20681;-59
2023/07/02 07:20:29;;;;;;;26.87;9.20;;;18.50;1.00;;;;;;4987259;28;20639;-59
2023/07/02 07:22:55;;;;;;;19.37;8.50;;;18.40;1.00;;;;;;5010717;28;20429;-59
2023/07/02 07:25:21;;;;;;;23.00;9.20;;;18.30;1.00;;;;;;5010224;28;20435;-59
2023/07/02 07:27:46;;;;;;;21.87;8.00;;;18.10;1.00;;;;;;5011017;28;20528;-58
2023/07/02 07:30:14;;;;;;;23.93;9.07;;;17.90;1.00;;;;;;5001836;28;20559;-60
2023/07/02 07:32:40;;;;;;;19.73;8.73;;;17.90;1.00;;;;;;5000642;28;20195;-62
2023/07/02 07:35:06;;;;;;;23.60;8.57;;;18.40;1.00;;;;;;5008190;28;20482;-60
2023/07/02 07:37:31;;;;;;;18.73;7.70;;;18.60;1.00;;;;;;4999939;28;20496;-61
2023/07/02 07:39:57;;;;;;;20.93;8.53;;;18.50;1.00;;;;;;5009757;28;20654;-61
2023/07/02 07:42:23;;;;;;;25.50;8.13;;;18.60;1.00;;;;;;5010998;28;20524;-60
2023/07/02 07:44:48;;;;;;;31.53;9.70;;;18.40;1.00;;;;;;4993181;28;20196;-62
2023/07/02 07:47:14;;;;;;;30.63;8.10;;;18.60;1.00;;;;;;5010318;28;20199;-60
2023/07/02 07:49:39;;;;;;;21.17;8.90;;;18.50;1.00;;;;;;5004763;28;20267;-60
2023/07/02 07:52:06;;;;;;;24.47;8.00;;;18.70;1.00;;;;;;5006747;28;20191;-60
2023/07/02 07:54:34;;;;;;;23.27;8.43;;;19.00;1.00;;;;;;5009816;28;20249;-61
2023/07/02 07:57:00;;;;;;;22.73;9.50;;;19.60;1.00;;;;;;5009847;28;20791;-60
2023/07/02 07:59:25;;;;;;;26.90;8.40;;;20.20;1.00;;;;;;5009753;28;20423;-60
2023/07/02 08:01:51;;;;;;;17.07;7.57;;;20.20;1.00;;;;;;5011312;28;20188;-60
2023/07/02 08:04:16;;;;;;;22.87;7.57;;;20.60;1.00;;;;;;5013118;28;20248;-61
2023/07/02 08:06:42;;;;;;;19.70;7.30;;;20.80;1.00;;;;;;5013455;28;20184;-60
2023/07/02 08:09:08;;;;;;;16.47;7.23;;;21.10;1.00;;;;;;5013362;28;20640;-60
2023/07/02 08:11:34;;;;;;;16.33;7.53;;;21.50;1.00;;;;;;5013296;28;20218;-60
2023/07/02 08:14:00;;;;;;;16.10;6.77;;;21.90;1.00;;;;;;5013595;28;20495;-61
2023/07/02 08:16:25;;;;;;;17.13;7.00;;;22.30;1.00;;;;;;5013257;28;20643;-61
2023/07/02 08:18:51;;;;;;;16.10;6.87;;;22.50;1.00;;;;;;5013256;28;20182;-61
2023/07/02 08:21:16;;;;;;;16.67;7.13;;;21.60;1.00;;;;;;5013201;28;20210;-60
2023/07/02 08:23:44;;;;;;;15.97;7.50;;;20.70;1.00;;;;;;5012927;28;20538;-61
2023/07/02 08:26:10;;;;;;;14.80;6.90;;;20.00;1.00;;;;;;5013132;28;20203;-60
2023/07/02 08:28:37;;;;;;;19.73;6.43;;;19.60;1.00;;;;;;5013075;28;20469;-60
2023/07/02 08:31:03;;;;;;;16.30;6.00;;;19.20;1.00;;;;;;5013046;28;20553;-59
2023/07/02 08:33:29;;;;;;;13.30;5.80;;;19.00;1.00;;;;;;5013018;28;21003;-59
2023/07/02 08:35:55;;;;;;;15.30;6.17;;;19.00;1.00;;;;;;5012891;28;20836;-60
2023/07/02 08:38:20;;;;;;;19.33;6.97;;;19.10;1.00;;;;;;5012804;28;20177;-59
2023/07/02 08:40:46;;;;;;;16.37;6.33;;;19.00;1.00;;;;;;5013026;28;20175;-60
2023/07/02 08:43:12;;;;;;;17.50;6.33;;;18.90;1.00;;;;;;5012886;28;20195;-60
2023/07/02 08:45:40;;;;;;;14.60;6.10;;;19.20;1.00;;;;;;5012843;28;20275;-61
2023/07/02 08:48:06;;;;;;;16.07;6.03;;;20.00;1.00;;;;;;5012539;28;20184;-60
2023/07/02 08:50:31;;;;;;;15.10;6.07;;;20.80;1.00;;;;;;5012496;28;20485;-60
2023/07/02 08:52:57;;;;;;;13.90;6.10;;;21.50;1.00;;;;;;5012749;28;20574;-61
2023/07/02 08:55:22;;;;;;;13.00;6.20;;;21.50;1.00;;;;;;5012175;28;20790;-60
2023/07/02 08:57:54;;;;;;;16.83;5.60;;;21.80;1.00;;;;;;5012423;28;20184;-60
2023/07/02 09:00:21;;;;;;;12.80;6.00;;;22.20;1.00;;;;;;5012580;28;20195;-60
2023/07/02 09:02:46;;;;;;;14.50;5.90;;;22.60;1.00;;;;;;5012568;28;20449;-61
2023/07/02 09:05:13;;;;;;;14.30;5.20;;;22.80;1.00;;;;;;5012551;28;20425;-61
2023/07/02 09:07:46;;;;;;;15.70;5.40;;;22.80;1.00;;;;;;5012526;28;20186;-61
2023/07/02 09:10:12;;;;;;;21.30;6.47;;;22.50;1.00;;;;;;5012155;28;20416;-60
2023/07/02 09:12:39;;;;;;;14.17;6.33;;;21.90;1.00;;;;;;5012063;28;20422;-60
2023/07/02 09:15:06;;;;;;;15.13;5.70;;;21.10;1.00;;;;;;5012303;28;20468;-60
2023/07/02 09:17:33;;;;;;;16.23;6.27;;;20.30;1.00;;;;;;5012312;28;20464;-59
2023/07/02 09:20:01;;;;;;;19.97;6.00;;;19.80;1.00;;;;;;5011998;28;20483;-60
2023/07/02 09:22:27;;;;;;;19.30;6.13;;;19.30;1.00;;;;;;5012280;28;20445;-60
2023/07/02 09:24:57;;;;;;;14.27;6.10;;;18.60;1.00;;;;;;5012228;28;20922;-60
2023/07/02 09:27:34;;;;;;;14.10;6.10;;;18.00;1.00;;;;;;5011901;28;20431;-59
2023/07/02 09:30:09;;;;;;;22.00;6.17;;;17.40;1.00;;;;;;5012142;28;20417;-59
2023/07/02 09:32:35;;;;;;;25.63;6.70;;;16.70;1.00;;;;;;5012124;28;20415;-61
2023/07/02 09:35:01;;;;;;;16.63;6.77;;;16.50;1.00;;;;;;5011748;28;20474;-60
2023/07/02 09:37:27;;;;;;;21.40;6.73;;;16.30;1.00;;;;;;5012009;28;20217;-59
2023/07/02 09:39:55;;;;;;;22.90;7.10;;;16.30;1.00;;;;;;5012041;28;20789;-61
2023/07/02 09:42:21;;;;;;;17.07;6.40;;;16.60;1.00;;;;;;5011940;28;20776;-60
2023/07/02 09:44:48;;;;;;;16.70;6.40;;;17.10;1.00;;;;;;5011934;28;20497;-60
2023/07/02 09:47:18;;;;;;;12.27;5.90;;;17.50;1.00;;;;;;5011620;28;20419;-59
2023/07/02 09:49:53;;;;;;;16.50;6.43;;;18.50;1.00;;;;;;5011844;28;20450;-59
2023/07/02 09:52:20;;;;;;;13.70;5.60;;;19.50;1.00;;;;;;5011836;28;20416;-59
2023/07/02 09:54:46;;;;;;;15.83;5.60;;;20.40;1.00;;;;;;5011335;28;20498;-60
2023/07/02 09:57:12;;;;;;;12.07;5.10;;;20.90;1.00;;;;;;5011741;28;20423;-60
2023/07/02 09:59:39;;;;;;;13.37;5.40;;;21.30;1.00;;;;;;5011680;28;20429;-60
2023/07/02 10:02:05;;;;;;;12.00;5.33;;;21.20;1.00;;;;;;5011644;28;20226;-59
2023/07/02 10:04:42;;;;;;;18.33;4.50;;;21.80;1.00;;;;;;5011632;28;20932;-59
2023/07/02 10:07:08;;;;;;;16.03;4.80;;;21.60;1.00;;;;;;5011538;28;20499;-60
2023/07/02 10:09:43;;;;;;;11.47;4.80;;;21.80;1.00;;;;;;5011544;28;20833;-58
2023/07/02 10:12:25;;;;;;;14.43;4.60;;;22.00;1.00;;;;;;5011359;28;20428;-60
2023/07/02 10:14:53;;;;;;;11.40;4.63;;;22.20;1.00;;;;;;5011150;28;20967;-60
2023/07/02 10:17:28;;;;;;;8.67;4.80;;;22.20;1.00;;;;;;4996898;28;20476;-59
2023/07/02 10:19:55;;;;;;;13.57;5.07;;;22.30;1.00;;;;;;5011423;28;20428;-60
2023/07/02 10:22:21;;;;;;;12.00;4.87;;;22.10;1.00;;;;;;5003240;28;20716;-59
2023/07/02 10:24:56;;;;;;;15.40;5.40;;;21.70;1.00;;;;;;4991348;28;20505;-59
2023/07/02 10:27:39;;;;;;;12.67;4.80;;;21.10;1.00;;;;;;4992339;28;20430;-59
2023/07/02 10:30:06;;;;;;;15.20;5.17;;;20.50;1.00;;;;;;4987564;28;20437;-59
2023/07/02 10:32:34;;;;;;;20.37;5.63;;;19.80;1.00;;;;;;4984500;28;20859;-58
2023/07/02 10:35:02;;;;;;;15.70;5.80;;;19.40;1.00;;;;;;4997406;28;20547;-59
2023/07/02 10:37:35;;;;;;;14.23;4.90;;;18.90;1.00;;;;;;5003350;28;20516;-60
2023/07/02 10:40:05;;;;;;;15.37;4.83;;;18.50;1.00;;;;;;5011415;28;20418;-59
2023/07/02 10:42:30;;;;;;;16.00;5.40;;;18.40;1.00;;;;;;4992060;28;20761;-58
2023/07/02 10:44:56;;;;;;;15.53;6.10;;;18.40;1.00;;;;;;4991436;28;20430;-59
2023/07/02 10:47:21;;;;;;;13.27;5.47;;;19.20;1.00;;;;;;5001367;28;20292;-58
2023/07/02 10:49:47;;;;;;;15.93;5.83;;;19.40;1.00;;;;;;5008604;28;20198;-59
2023/07/02 10:52:13;;;;;;;14.97;5.00;;;19.20;1.00;;;;;;5010729;28;20263;-59
2023/07/02 10:54:44;;;;;;;15.67;4.50;;;18.80;1.00;;;;;;5010462;28;20524;-59
2023/07/02 10:57:13;;;;;;;14.03;5.00;;;18.50;1.00;;;;;;5010876;28;20187;-60
2023/07/02 10:59:38;;;;;;;12.07;5.00;;;18.40;1.00;;;;;;5010490;28;20427;-60
2023/07/02 11:02:04;;;;;;;11.33;4.90;;;18.30;1.00;;;;;;5010831;28;20419;-60
2023/07/02 11:04:31;;;;;;;9.03;4.10;;;18.40;1.00;;;;;;5010765;28;20214;-61
2023/07/02 11:06:57;;;;;;;10.67;4.30;;;18.90;1.00;;;;;;5010762;28;20477;-60
2023/07/02 11:09:24;;;;;;;9.63;4.13;;;19.70;1.00;;;;;;5010748;28;21146;-60
2023/07/02 11:12:00;;;;;;;11.30;4.20;;;20.70;1.00;;;;;;5010726;28;20489;-60
2023/07/02 11:14:30;;;;;;;12.20;4.50;;;21.80;1.00;;;;;;5010351;28;20506;-58
2023/07/02 11:16:56;;;;;;;12.60;4.27;;;22.70;1.00;;;;;;5010326;28;20912;-58
2023/07/02 11:19:22;;;;;;;9.40;4.03;;;22.80;1.00;;;;;;5010616;28;20511;-60
2023/07/02 11:21:53;;;;;;;13.00;4.47;;;22.40;1.00;;;;;;5010267;28;20472;-60
2023/07/02 11:24:32;;;;;;;12.83;5.07;;;21.70;1.00;;;;;;5010545;28;20195;-59
2023/07/02 11:26:59;;;;;;;12.63;3.83;;;20.90;1.00;;;;;;5008642;28;20503;-59
2023/07/02 11:29:25;;;;;;;14.73;4.60;;;20.70;1.00;;;;;;4993119;28;20538;-60
2023/07/02 11:31:51;;;;;;;7.20;4.23;;;20.40;1.00;;;;;;5008023;28;20509;-59
2023/07/02 11:34:20;;;;;;;14.00;4.00;;;20.40;1.00;;;;;;5006436;28;20282;-59
2023/07/02 11:36:46;;;;;;;6.33;3.10;;;20.70;1.00;;;;;;4991994;28;20181;-60
2023/07/02 11:39:12;;;;;;;11.17;4.03;;;21.60;1.00;;;;;;4994153;28;20443;-60
2023/07/02 11:41:38;;;;;;;6.40;3.37;;;22.90;1.00;;;;;;5034852;28;20438;-57
2023/07/02 11:44:04;;;;;;;14.53;3.37;;;23.60;99.90;;;;;;5001605;28;20226;-56
2023/07/02 11:46:30;;;;;;;13.70;3.70;;;23.20;99.90;;;;;;5007106;28;20463;-56
2023/07/02 11:48:56;;;;;;;9.20;3.33;;;23.30;99.90;;;;;;5007285;28;20432;-56
2023/07/02 11:51:21;;;;;;;10.20;4.43;;;23.90;99.90;;;;;;5001784;28;20817;-56
2023/07/02 11:53:47;;;;;;;5.87;2.73;;;24.20;99.90;;;;;;4992771;28;20232;-57
2023/07/02 11:56:13;;;;;;;5.17;3.03;;;23.70;99.90;;;;;;4992866;28;20438;-56
2023/07/02 11:58:39;;;;;;;9.70;3.10;;;22.70;99.90;;;;;;4992845;28;20531;-56
2023/07/02 12:01:05;;;;;;;10.30;3.00;;;21.90;99.90;;;;;;4994216;28;20200;-59
2023/07/02 12:03:31;;;;;;;11.00;2.77;;;21.10;99.90;;;;;;4994433;28;20444;-60
2023/07/02 12:05:56;;;;;;;10.73;2.80;;;20.40;99.90;;;;;;4994223;28;20456;-59
2023/07/02 12:08:22;;;;;;;6.73;3.40;;;19.90;99.90;;;;;;4994566;28;20181;-59
2023/07/02 12:10:48;;;;;;;11.63;3.20;;;19.90;99.90;;;;;;4994112;28;20566;-60
2023/07/02 12:13:14;;;;;;;7.30;3.27;;;19.80;99.90;;;;;;4993759;28;20243;-59
2023/07/02 12:15:39;;;;;;;6.20;2.90;;;19.50;99.90;;;;;;4993847;28;20218;-58
2023/07/02 12:18:05;;;;;;;7.80;3.20;;;20.00;99.90;;;;;;4994340;28;20184;-59
2023/07/02 12:20:31;;;;;;;10.63;3.20;;;21.00;99.90;;;;;;4994412;28;20917;-59
2023/07/02 12:22:57;;;;;;;9.93;3.83;;;22.20;99.90;;;;;;4989291;28;20193;-57
2023/07/02 12:25:23;;;;;;;7.40;3.50;;;22.80;99.90;;;;;;4993201;28;20191;-57
2023/07/02 12:27:48;;;;;;;9.13;3.57;;;23.70;99.90;;;;;;4993394;28;20899;-57
2023/07/02 12:30:18;;;;;;;7.87;3.07;;;23.60;99.90;;;;;;4993600;28;20189;-56
2023/07/02 12:32:44;;;;;;;9.30;3.10;;;23.70;99.90;;;;;;4993327;28;20199;-56
2023/07/02 12:35:10;;;;;;;12.23;3.40;;;23.10;99.90;;;;;;4992924;28;20478;-57
2023/07/02 12:37:46;;;;;;;9.90;3.93;;;22.70;99.90;;;;;;5002359;28;20506;-57
2023/07/02 12:40:12;;;;;;;14.40;3.83;;;23.20;99.90;;;;;;5007967;28;20446;-58
2023/07/02 12:42:37;;;;;;;9.87;3.10;;;24.10;99.90;;;;;;5002751;28;20979;-58